Time;durP1;ratioP1;P1;durP2;ratioP2;P2;SDS_P1;SDS_P2;PMS_P1;PMS_P2;Temp;Humidity;BMP_temperature;BMP_pressure;BME280_temperature;BME280_humidity;BME280_pressure;Samples;Min_cycle;Max_cycle;Signal;HPM_P1;HPM_P2
2021/05/15 00:01:57;;;;;;;;;;;10.80;99.90;;;;;;4983972;28;20688;-65
2021/05/15 00:04:24;;;;;;;5.97;1.65;;;10.60;99.90;;;;;;4984714;28;20087;-65
2021/05/15 00:06:53;;;;;;;3.53;1.60;;;10.60;99.90;;;;;;4982965;28;20082;-65
2021/05/15 00:09:21;;;;;;;3.08;1.50;;;10.60;99.90;;;;;;4980753;28;20081;-65
2021/05/15 00:11:47;;;;;;;3.78;1.67;;;10.50;99.90;;;;;;4976518;28;20057;-65
2021/05/15 00:14:14;;;;;;;;;;;10.50;99.90;;;;;;4980491;28;20387;-65
2021/05/15 00:16:40;;;;;;;4.53;1.55;;;10.60;99.90;;;;;;4982412;28;19925;-65
2021/05/15 00:19:07;;;;;;;3.38;1.75;;;10.50;99.90;;;;;;4981964;28;20046;-65
2021/05/15 00:21:33;;;;;;;3.85;1.67;;;10.40;99.90;;;;;;4983209;28;20057;-65
2021/05/15 00:23:59;;;;;;;;;;;10.40;99.90;;;;;;4982682;28;20451;-65
2021/05/15 00:26:27;;;;;;;3.40;1.63;;;10.40;99.90;;;;;;4975566;28;19929;-65
2021/05/15 00:28:53;;;;;;;3.28;1.50;;;10.40;99.90;;;;;;4975912;28;20082;-65
2021/05/15 00:31:20;;;;;;;;;;;10.40;99.90;;;;;;4975464;28;20506;-65
2021/05/15 00:33:46;;;;;;;3.90;1.60;;;10.50;99.90;;;;;;4978983;28;19968;-65
2021/05/15 00:36:13;;;;;;;4.57;1.60;;;10.30;99.90;;;;;;4980157;28;20056;-65
2021/05/15 00:38:39;;;;;;;4.13;1.92;;;10.20;99.90;;;;;;4980780;28;20084;-64
2021/05/15 00:41:05;;;;;;;;;;;10.10;99.90;;;;;;4987860;28;20525;-65
2021/05/15 00:43:33;;;;;;;3.85;1.95;;;10.20;99.90;;;;;;4980930;28;19975;-65
2021/05/15 00:45:59;;;;;;;4.32;1.77;;;10.20;99.90;;;;;;4982272;28;20049;-65
2021/05/15 00:48:26;;;;;;;2.97;1.70;;;10.10;99.90;;;;;;4982747;28;20132;-65
2021/05/15 00:50:53;;;;;;;6.10;2.15;;;10.10;99.90;;;;;;4982025;28;20184;-65
2021/05/15 00:53:20;;;;;;;7.28;1.90;;;10.10;99.90;;;;;;4980017;28;20057;-65
2021/05/15 00:55:46;;;;;;;;;;;10.30;99.90;;;;;;4983773;28;20077;-65
2021/05/15 00:58:13;;;;;;;4.32;2.08;;;10.30;99.90;;;;;;4982078;28;19967;-65
2021/05/15 01:00:41;;;;;;;3.53;1.80;;;10.20;99.90;;;;;;4983239;28;20115;-65
2021/05/15 01:03:07;;;;;;;4.82;1.92;;;10.00;99.90;;;;;;4978951;28;20090;-65
2021/05/15 01:05:34;;;;;;;4.25;1.42;;;10.00;99.90;;;;;;4981181;28;20061;-64
2021/05/15 01:08:01;;;;;;;3.00;1.70;;;9.90;99.90;;;;;;4980515;28;20537;-65
2021/05/15 01:10:27;;;;;;;6.30;1.55;;;9.80;99.90;;;;;;4984257;28;20108;-64
2021/05/15 01:12:56;;;;;;;3.28;1.38;;;9.80;99.90;;;;;;4983026;28;20084;-64
2021/05/15 01:15:24;;;;;;;3.47;1.50;;;9.70;99.90;;;;;;4979271;28;20053;-65
2021/05/15 01:17:53;;;;;;;4.57;1.50;;;9.70;99.90;;;;;;4981198;28;20132;-65
2021/05/15 01:20:20;;;;;;;3.42;1.70;;;9.70;99.90;;;;;;4981584;28;20080;-65
2021/05/15 01:22:49;;;;;;;4.38;1.92;;;9.70;99.90;;;;;;4981062;28;20788;-65
2021/05/15 01:25:15;;;;;;;5.43;1.77;;;9.70;99.90;;;;;;4980768;28;20919;-64
2021/05/15 01:27:42;;;;;;;4.82;1.50;;;9.80;99.90;;;;;;4979478;28;20050;-65
2021/05/15 01:30:11;;;;;;;2.97;1.67;;;9.70;99.90;;;;;;4978350;28;20609;-65
2021/05/15 01:32:39;;;;;;;4.80;1.50;;;9.80;99.90;;;;;;4980026;28;20188;-65
2021/05/15 01:35:07;;;;;;;3.38;1.63;;;9.80;99.90;;;;;;4982632;28;20064;-65
2021/05/15 01:37:34;;;;;;;3.60;1.80;;;9.70;99.90;;;;;;4981056;28;20483;-65
2021/05/15 01:40:02;;;;;;;3.88;1.75;;;9.70;99.90;;;;;;4980153;28;20041;-65
2021/05/15 01:42:28;;;;;;;4.32;1.42;;;9.70;99.90;;;;;;4983360;28;20073;-65
2021/05/15 01:44:54;;;;;;;;;;;9.70;99.90;;;;;;4985242;28;20049;-65
2021/05/15 01:47:21;;;;;;;4.63;2.05;;;9.70;99.90;;;;;;4983257;28;19965;-65
2021/05/15 01:49:48;;;;;;;2.83;1.65;;;9.60;99.90;;;;;;4984355;28;20053;-65
2021/05/15 01:52:15;;;;;;;4.50;1.75;;;9.60;99.90;;;;;;4979814;28;20633;-65
2021/05/15 01:54:42;;;;;;;4.60;1.92;;;9.60;99.90;;;;;;4982080;28;20140;-64
2021/05/15 01:57:10;;;;;;;4.03;2.05;;;9.50;99.90;;;;;;4981424;28;20053;-65
2021/05/15 01:59:37;;;;;;;6.47;1.88;;;9.50;99.90;;;;;;4978199;28;20854;-64
2021/05/15 02:02:03;;;;;;;3.53;1.98;;;9.50;99.90;;;;;;4980390;28;20482;-64
2021/05/15 02:04:30;;;;;;;5.40;1.90;;;9.60;99.90;;;;;;4983099;28;20176;-64
2021/05/15 02:06:56;;;;;;;;;;;9.60;99.90;;;;;;4979363;28;20088;-64
2021/05/15 02:09:23;;;;;;;5.05;1.70;;;9.60;99.90;;;;;;4980897;28;19932;-64
2021/05/15 02:11:49;;;;;;;;;;;9.60;99.90;;;;;;4979992;28;20092;-65
2021/05/15 02:14:16;;;;;;;6.70;1.80;;;9.60;99.90;;;;;;4978946;28;20022;-64
2021/05/15 02:16:43;;;;;;;5.60;1.95;;;9.60;99.90;;;;;;4985386;28;20049;-65
2021/05/15 02:19:10;;;;;;;9.90;1.88;;;9.60;99.90;;;;;;4985880;28;20086;-65
2021/05/15 02:21:36;;;;;;;8.38;2.38;;;9.70;99.90;;;;;;4983102;28;20394;-64
2021/05/15 02:24:03;;;;;;;6.78;2.05;;;9.60;99.90;;;;;;4980709;28;20046;-64
2021/05/15 02:26:30;;;;;;;3.90;2.00;;;9.70;99.90;;;;;;4979410;28;20507;-65
2021/05/15 02:28:56;;;;;;;;;;;9.60;99.90;;;;;;4983475;28;20085;-64
2021/05/15 02:31:23;;;;;;;5.63;2.20;;;9.70;99.90;;;;;;4981734;28;19925;-64
2021/05/15 02:33:50;;;;;;;4.88;2.10;;;9.70;99.90;;;;;;4981693;28;20057;-65
2021/05/15 02:36:16;;;;;;;;;;;9.70;99.90;;;;;;4980083;28;20085;-64
2021/05/15 02:38:43;;;;;;;4.57;1.77;;;9.70;99.90;;;;;;4979939;28;19925;-64
2021/05/15 02:41:09;;;;;;;;;;;9.70;99.90;;;;;;4986499;28;20054;-64
2021/05/15 02:43:35;;;;;;;5.43;1.85;;;9.70;99.90;;;;;;4985446;28;19988;-65
2021/05/15 02:46:02;;;;;;;;;;;9.80;99.90;;;;;;4985206;28;20064;-64
2021/05/15 02:48:29;;;;;;;4.90;2.00;;;9.80;99.90;;;;;;4980982;28;19968;-64
2021/05/15 02:50:55;;;;;;;7.28;2.05;;;9.90;99.90;;;;;;4985383;28;20081;-65
2021/05/15 02:53:22;;;;;;;;;;;9.90;99.90;;;;;;4983219;28;20100;-65
2021/05/15 02:55:48;;;;;;;4.82;1.60;;;9.90;99.90;;;;;;4984816;28;19936;-64
2021/05/15 02:58:16;;;;;;;;;;;10.00;99.90;;;;;;4979367;28;20046;-65
2021/05/15 03:00:43;;;;;;;5.03;1.33;;;10.00;99.90;;;;;;4985806;28;19936;-65
2021/05/15 03:03:09;;;;;;;3.95;1.30;;;10.10;99.90;;;;;;4982295;28;20462;-65
2021/05/15 03:05:37;;;;;;;4.80;1.55;;;10.10;99.90;;;;;;4983601;28;20081;-64
2021/05/15 03:08:04;;;;;;;3.90;1.30;;;10.10;99.90;;;;;;4984901;28;20099;-65
2021/05/15 03:10:30;;;;;;;2.83;1.65;;;10.10;99.90;;;;;;4981798;28;20045;-65
2021/05/15 03:12:57;;;;;;;3.42;1.65;;;10.10;99.90;;;;;;4982817;28;20100;-65
2021/05/15 03:15:25;;;;;;;3.50;1.60;;;10.10;99.90;;;;;;4985242;28;20046;-65
2021/05/15 03:17:52;;;;;;;4.68;1.70;;;10.10;99.90;;;;;;4982181;28;20068;-65
2021/05/15 03:20:22;;;;;;;3.78;1.58;;;10.10;99.90;;;;;;4982220;28;20765;-64
2021/05/15 03:22:50;;;;;;;4.43;1.35;;;10.20;99.90;;;;;;4981199;28;20548;-65
2021/05/15 03:25:17;;;;;;;4.57;1.58;;;10.10;99.90;;;;;;4985115;28;20470;-65
2021/05/15 03:27:44;;;;;;;4.40;1.58;;;10.10;99.90;;;;;;4980622;28;20073;-65
2021/05/15 03:30:12;;;;;;;3.97;1.55;;;10.10;99.90;;;;;;4981682;28;20057;-65
2021/05/15 03:32:40;;;;;;;3.63;1.80;;;10.10;99.90;;;;;;4984586;28;20065;-65
2021/05/15 03:35:08;;;;;;;5.40;1.40;;;10.10;99.90;;;;;;4984313;28;20060;-64
2021/05/15 03:37:34;;;;;;;4.53;1.52;;;10.10;99.90;;;;;;4978191;28;20090;-65
2021/05/15 03:40:02;;;;;;;5.03;1.40;;;10.10;99.90;;;;;;4979045;28;20080;-65
2021/05/15 03:42:28;;;;;;;3.17;1.27;;;10.10;99.90;;;;;;4980246;28;20143;-65
2021/05/15 03:44:54;;;;;;;;;;;10.10;99.90;;;;;;4989582;28;20060;-65
2021/05/15 03:47:22;;;;;;;2.88;1.30;;;10.20;99.90;;;;;;4984062;28;19968;-65
2021/05/15 03:49:48;;;;;;;3.72;1.52;;;10.20;99.90;;;;;;4985361;28;20482;-65
2021/05/15 03:52:14;;;;;;;;;;;10.30;99.90;;;;;;4984084;28;20045;-65
2021/05/15 03:54:41;;;;;;;3.40;1.48;;;10.30;99.90;;;;;;4980343;28;20019;-65
2021/05/15 03:57:08;;;;;;;2.83;1.40;;;10.40;99.90;;;;;;4983890;28;20107;-65
2021/05/15 03:59:35;;;;;;;2.97;1.50;;;10.40;99.90;;;;;;4979056;28;20581;-65
2021/05/15 04:02:01;;;;;;;;;;;10.30;99.90;;;;;;4984381;28;20081;-65
2021/05/15 04:04:27;;;;;;;3.67;1.50;;;10.30;99.90;;;;;;4982328;28;19995;-65
2021/05/15 04:06:54;;;;;;;;;;;10.20;99.90;;;;;;4982378;28;20045;-65
2021/05/15 04:09:20;;;;;;;3.40;1.55;;;10.30;99.90;;;;;;4984434;28;20031;-65
2021/05/15 04:11:46;;;;;;;;;;;10.30;99.90;;;;;;4983355;28;20099;-68
2021/05/15 04:14:31;;;;;;;4.47;1.50;;;10.30;99.90;;;;;;4982834;28;19980;-64
2021/05/15 04:17:13;;;;;;;4.63;1.52;;;10.20;99.90;;;;;;4980635;28;20856;-66
2021/05/15 04:19:40;;;;;;;6.70;1.75;;;10.20;99.90;;;;;;4986308;28;20136;-65
2021/05/15 04:22:06;;;;;;;3.95;1.80;;;10.20;99.90;;;;;;4989708;28;20046;-65
2021/05/15 04:24:33;;;;;;;4.60;1.52;;;10.30;99.90;;;;;;4995291;28;20606;-64
2021/05/15 04:27:02;;;;;;;3.97;1.73;;;10.30;99.90;;;;;;4993428;28;20125;-65
2021/05/15 04:29:30;;;;;;;2.17;1.20;;;10.30;99.90;;;;;;4994623;28;20053;-65
2021/05/15 04:31:57;;;;;;;4.47;1.40;;;10.30;99.90;;;;;;4995197;28;20088;-65
2021/05/15 04:34:24;;;;;;;3.53;1.20;;;10.30;99.90;;;;;;4993457;28;20866;-65
2021/05/15 04:36:51;;;;;;;3.75;1.48;;;10.30;99.90;;;;;;4992486;28;20380;-65
2021/05/15 04:39:18;;;;;;;4.40;1.40;;;10.30;99.90;;;;;;4994290;28;20050;-65
2021/05/15 04:41:44;;;;;;;3.50;1.30;;;10.30;99.90;;;;;;4993517;28;20049;-65
2021/05/15 04:44:11;;;;;;;7.50;1.70;;;10.30;99.90;;;;;;4993345;28;20414;-65
2021/05/15 04:46:38;;;;;;;4.65;1.45;;;10.30;99.90;;;;;;4994004;28;20085;-65
2021/05/15 04:49:05;;;;;;;3.72;1.63;;;10.30;99.90;;;;;;4992003;28;20125;-65
2021/05/15 04:51:31;;;;;;;;;;;10.30;99.90;;;;;;4992283;28;20081;-65
2021/05/15 04:54:01;;;;;;;2.53;1.30;;;10.30;99.90;;;;;;4995177;28;19925;-65
2021/05/15 04:56:28;;;;;;;3.70;1.90;;;10.40;99.90;;;;;;4996902;28;20061;-64
2021/05/15 04:58:54;;;;;;;2.90;1.20;;;10.40;99.90;;;;;;4994390;28;21351;-64
2021/05/15 05:01:21;;;;;;;4.80;1.40;;;10.30;99.90;;;;;;4994741;28;20081;-65
2021/05/15 05:03:48;;;;;;;;;;;10.30;99.90;;;;;;4994238;28;20046;-65
2021/05/15 05:06:15;;;;;;;6.43;1.60;;;10.20;99.90;;;;;;4998442;28;20004;-64
2021/05/15 05:08:41;;;;;;;3.25;1.45;;;10.20;99.90;;;;;;4994652;28;20822;-65
2021/05/15 05:11:07;;;;;;;;;;;10.20;99.90;;;;;;4994429;28;21199;-65
2021/05/15 05:13:34;;;;;;;3.28;1.50;;;10.10;99.90;;;;;;4997602;28;19969;-65
2021/05/15 05:16:00;;;;;;;;;;;10.10;99.90;;;;;;4993889;28;20566;-65
2021/05/15 05:18:27;;;;;;;2.80;1.17;;;10.10;99.90;;;;;;4994708;28;20003;-65
2021/05/15 05:20:56;;;;;;;;;;;10.10;99.90;;;;;;4993172;28;20104;-65
2021/05/15 05:23:22;;;;;;;2.72;1.30;;;10.10;99.90;;;;;;4995076;28;20741;-64
2021/05/15 05:25:49;;;;;;;4.05;1.20;;;10.10;99.90;;;;;;4996931;28;20525;-65
2021/05/15 05:28:20;;;;;;;3.40;1.42;;;10.10;99.90;;;;;;4993777;28;20082;-65
2021/05/15 05:30:47;;;;;;;3.13;1.30;;;10.00;99.90;;;;;;4996216;28;20064;-64
2021/05/15 05:33:13;;;;;;;;;;;10.00;99.90;;;;;;4996491;28;20464;-65
2021/05/15 05:35:39;;;;;;;3.08;1.13;;;10.10;99.90;;;;;;4994672;28;19925;-64
2021/05/15 05:38:07;;;;;;;1.95;1.20;;;10.10;99.90;;;;;;4995440;28;20119;-65
2021/05/15 05:40:33;;;;;;;3.85;1.20;;;10.20;99.90;;;;;;4995834;28;20161;-65
2021/05/15 05:43:00;;;;;;;5.97;1.38;;;10.30;99.90;;;;;;4994975;28;20443;-65
2021/05/15 05:45:26;;;;;;;;;;;10.40;99.90;;;;;;4993153;28;20084;-65
2021/05/15 05:47:53;;;;;;;3.53;1.65;;;10.50;99.90;;;;;;4993174;28;19929;-65
2021/05/15 05:50:19;;;;;;;;;;;10.60;99.90;;;;;;4995626;28;20064;-66
2021/05/15 05:52:45;;;;;;;3.88;1.35;;;10.70;99.90;;;;;;4994045;28;20429;-66
2021/05/15 05:55:13;;;;;;;2.80;1.17;;;10.80;99.90;;;;;;4998024;28;20089;-65
2021/05/15 05:57:40;;;;;;;2.45;1.38;;;10.90;99.90;;;;;;4991268;28;21276;-65
2021/05/15 06:00:08;;;;;;;1.95;1.10;;;11.00;99.90;;;;;;4990633;28;20050;-64
2021/05/15 06:02:35;;;;;;;1.95;1.10;;;11.20;99.90;;;;;;4988920;28;20057;-64
2021/05/15 06:05:02;;;;;;;;;;;11.30;99.90;;;;;;4991337;28;20056;-65
2021/05/15 06:07:28;;;;;;;;;;;11.40;99.90;;;;;;4991569;28;20476;-64
2021/05/15 06:09:55;;;;;;;2.20;1.15;;;11.40;99.90;;;;;;4991954;28;19925;-65
2021/05/15 06:12:22;;;;;;;;;;;11.50;99.90;;;;;;4990847;28;20095;-65
2021/05/15 06:14:49;;;;;;;;;;;11.50;99.90;;;;;;4991847;28;20027;-65
2021/05/15 06:17:15;;;;;;;3.92;1.17;;;11.60;99.90;;;;;;4992312;28;19940;-65
2021/05/15 06:19:44;;;;;;;;;;;11.70;99.90;;;;;;4987285;28;20504;-64
2021/05/15 06:22:11;;;;;;;4.30;1.15;;;11.90;99.90;;;;;;4983599;28;19925;-65
2021/05/15 06:24:40;;;;;;;2.53;1.30;;;12.00;99.90;;;;;;4988993;28;20064;-65
2021/05/15 06:27:06;;;;;;;2.72;1.20;;;12.20;99.90;;;;;;4985393;28;20094;-65
2021/05/15 06:29:34;;;;;;;4.45;1.45;;;12.30;99.90;;;;;;4987378;28;20060;-65
2021/05/15 06:32:01;;;;;;;4.15;1.20;;;12.50;99.90;;;;;;4988698;28;20140;-65
2021/05/15 06:34:27;;;;;;;;;;;12.40;99.90;;;;;;4987211;28;20134;-65
2021/05/15 06:36:53;;;;;;;2.40;1.13;;;12.40;99.90;;;;;;4987362;28;19992;-66
2021/05/15 06:39:20;;;;;;;;;;;12.40;99.90;;;;;;4987092;28;20057;-65
2021/05/15 06:41:46;;;;;;;3.35;1.70;;;12.30;99.90;;;;;;4986571;28;20040;-65
2021/05/15 06:44:13;;;;;;;;;;;12.30;99.90;;;;;;4989597;28;20081;-65
2021/05/15 06:46:40;;;;;;;2.95;1.10;;;12.30;99.90;;;;;;4984795;28;20066;-65
2021/05/15 06:49:06;;;;;;;1.92;1.10;;;12.40;99.90;;;;;;4986763;28;20483;-66
2021/05/15 06:51:33;;;;;;;3.00;1.00;;;12.50;99.90;;;;;;4986551;28;20084;-67
2021/05/15 06:54:00;;;;;;;3.08;1.10;;;12.60;99.90;;;;;;4984132;28;20147;-66
2021/05/15 06:56:26;;;;;;;2.67;0.95;;;12.70;99.90;;;;;;4990105;28;20151;-65
2021/05/15 06:58:53;;;;;;;2.33;1.10;;;12.90;99.90;;;;;;4986056;28;20454;-65
2021/05/15 07:01:19;;;;;;;;;;;13.00;99.90;;;;;;4987544;28;20112;-66
2021/05/15 07:03:46;;;;;;;1.40;1.00;;;13.10;99.90;;;;;;4984184;28;20472;-65
2021/05/15 07:06:13;;;;;;;6.88;1.17;;;13.30;99.90;;;;;;4988000;28;20522;-65
2021/05/15 07:08:39;;;;;;;;;;;13.50;99.90;;;;;;4983074;28;20105;-65
2021/05/15 07:11:05;;;;;;;2.72;1.00;;;13.50;99.90;;;;;;4984970;28;20436;-65
2021/05/15 07:13:32;;;;;;;;;;;13.70;99.90;;;;;;4985306;28;20045;-65
2021/05/15 07:15:58;;;;;;;4.07;1.10;;;13.70;99.90;;;;;;4985867;28;20694;-65
2021/05/15 07:18:24;;;;;;;;;;;13.80;99.90;;;;;;4985119;28;20469;-65
2021/05/15 07:20:52;;;;;;;1.25;1.02;;;13.80;99.90;;;;;;4987644;28;19925;-65
2021/05/15 07:23:18;;;;;;;2.03;1.10;;;13.70;99.90;;;;;;4981752;28;20127;-66
2021/05/15 07:25:45;;;;;;;2.47;1.10;;;13.80;99.90;;;;;;4991563;28;20060;-66
2021/05/15 07:28:11;;;;;;;2.50;1.30;;;13.90;99.90;;;;;;4988306;28;20049;-65
2021/05/15 07:30:37;;;;;;;;;;;13.80;99.90;;;;;;4986200;28;20058;-65
2021/05/15 07:33:04;;;;;;;2.33;0.93;;;13.60;99.90;;;;;;4984921;28;19979;-65
2021/05/15 07:35:31;;;;;;;0.85;0.70;;;13.90;99.90;;;;;;4984021;28;20152;-65
2021/05/15 07:37:58;;;;;;;3.35;1.02;;;14.30;99.90;;;;;;4987265;28;20686;-65
2021/05/15 07:40:25;;;;;;;0.98;0.80;;;14.30;99.90;;;;;;4990006;28;20085;-67
2021/05/15 07:42:51;;;;;;;1.83;1.00;;;14.60;99.90;;;;;;4987578;28;20081;-63
2021/05/15 07:45:18;;;;;;;3.03;1.13;;;14.70;99.90;;;;;;4989941;28;20081;-64
2021/05/15 07:47:44;;;;;;;1.40;1.05;;;14.50;99.90;;;;;;4982234;28;20049;-64
2021/05/15 07:50:11;;;;;;;2.28;1.17;;;14.70;99.90;;;;;;4983425;28;20061;-64
2021/05/15 07:52:38;;;;;;;3.25;1.08;;;14.60;99.90;;;;;;4985384;28;20812;-64
2021/05/15 07:55:07;;;;;;;1.45;0.90;;;14.70;99.90;;;;;;4989929;28;20049;-64
2021/05/15 07:57:34;;;;;;;3.75;1.20;;;14.80;99.90;;;;;;4986220;28;20061;-64
2021/05/15 08:00:01;;;;;;;2.85;0.90;;;14.70;99.90;;;;;;4989660;28;20655;-64
2021/05/15 08:02:28;;;;;;;2.85;0.90;;;14.40;99.90;;;;;;4993812;28;20080;-64
2021/05/15 08:04:55;;;;;;;3.03;1.30;;;14.40;99.90;;;;;;4988047;28;20152;-66
2021/05/15 08:07:22;;;;;;;2.17;1.00;;;14.20;99.90;;;;;;4993743;28;20491;-65
2021/05/15 08:09:49;;;;;;;2.80;1.10;;;14.30;99.90;;;;;;4994304;28;20160;-64
2021/05/15 08:12:16;;;;;;;3.75;0.90;;;14.40;99.90;;;;;;4982239;28;20075;-64
2021/05/15 08:15:11;;;;;;;;;;;;;;;;;;;;;
2021/05/15 08:17:40;;;;;;;3.33;1.13;;;14.50;99.90;;;;;;5009614;28;20060;-65
2021/05/15 08:20:09;;;;;;;1.77;1.08;;;14.70;99.90;;;;;;4994450;28;20453;-66
2021/05/15 08:22:35;;;;;;;1.73;0.90;;;14.90;99.90;;;;;;4993538;28;20116;-66
2021/05/15 08:25:02;;;;;;;2.10;0.93;;;15.10;99.90;;;;;;4995172;28;20077;-66
2021/05/15 08:27:29;;;;;;;2.42;1.25;;;15.30;99.90;;;;;;4997930;28;20068;-66
2021/05/15 08:29:56;;;;;;;0.90;0.70;;;15.60;99.90;;;;;;4996398;28;20116;-71
2021/05/15 08:32:22;;;;;;;2.95;1.20;;;15.60;99.90;;;;;;4999600;28;20046;-73
2021/05/15 08:34:49;;;;;;;2.05;1.00;;;15.50;99.90;;;;;;5001502;28;20160;-70
2021/05/15 08:37:18;;;;;;;2.20;1.00;;;15.70;99.90;;;;;;4994649;28;20144;-66
2021/05/15 08:39:45;;;;;;;10.30;2.75;;;16.00;99.90;;;;;;5000598;28;20049;-66
2021/05/15 08:42:12;;;;;;;2.38;0.98;;;16.30;99.90;;;;;;5002812;28;20046;-66
2021/05/15 08:44:46;;;;;;;1.60;0.93;;;17.00;99.90;;;;;;5004288;28;20106;-67
2021/05/15 08:47:16;;;;;;;5.82;1.05;;;16.80;99.90;;;;;;4999905;28;20135;-66
2021/05/15 08:49:44;;;;;;;1.65;0.80;;;16.50;99.90;;;;;;5001150;28;20045;-67
2021/05/15 08:52:11;;;;;;;3.35;1.20;;;16.40;99.90;;;;;;5000039;28;20557;-67
2021/05/15 08:54:38;;;;;;;2.22;0.93;;;16.50;99.90;;;;;;4997355;28;20134;-66
2021/05/15 08:57:05;;;;;;;2.00;1.00;;;16.50;99.90;;;;;;5000768;28;20073;-67
2021/05/15 08:59:31;;;;;;;3.95;1.42;;;16.10;99.90;;;;;;4997368;28;20049;-67
2021/05/15 09:01:59;;;;;;;3.42;1.08;;;15.90;99.90;;;;;;4997352;28;20529;-66
2021/05/15 09:04:27;;;;;;;2.53;0.90;;;16.20;99.90;;;;;;4999082;28;20703;-67
2021/05/15 09:06:53;;;;;;;2.60;1.10;;;16.60;99.90;;;;;;5001422;28;20041;-67
2021/05/15 09:09:20;;;;;;;3.33;1.00;;;16.70;99.90;;;;;;5000770;28;20089;-67
2021/05/15 09:11:47;;;;;;;2.40;1.10;;;16.40;99.90;;;;;;5002281;28;20181;-67
2021/05/15 09:14:15;;;;;;;2.10;1.00;;;15.90;99.90;;;;;;5003242;28;20098;-66
2021/05/15 09:16:49;;;;;;;2.42;1.10;;;15.40;99.90;;;;;;4999706;28;20054;-67
2021/05/15 09:19:19;;;;;;;2.88;1.10;;;15.40;99.90;;;;;;4998153;28;20100;-67
2021/05/15 09:21:59;;;;;;;1.75;1.00;;;15.10;99.90;;;;;;4998353;28;20046;-66
2021/05/15 09:24:30;;;;;;;3.08;1.10;;;14.90;99.90;;;;;;4998078;28;20057;-67
2021/05/15 09:26:58;;;;;;;5.68;1.40;;;14.70;99.90;;;;;;4999044;28;20065;-66
2021/05/15 09:29:24;;;;;;;1.95;1.02;;;14.70;99.90;;;;;;4998940;28;20831;-67
2021/05/15 09:31:51;;;;;;;3.78;0.80;;;14.50;99.90;;;;;;4999639;28;20159;-66
2021/05/15 09:34:17;;;;;;;2.35;1.30;;;14.50;99.90;;;;;;5000206;28;20057;-67
2021/05/15 09:36:47;;;;;;;3.75;1.00;;;14.60;99.90;;;;;;4986619;28;20103;-67
2021/05/15 09:39:16;;;;;;;3.70;1.00;;;14.40;99.90;;;;;;4981080;28;20467;-66
2021/05/15 09:41:44;;;;;;;4.78;1.63;;;14.00;99.90;;;;;;4985792;28;20141;-68
2021/05/15 09:44:12;;;;;;;2.70;1.33;;;13.40;99.90;;;;;;4985725;28;20065;-67
2021/05/15 09:46:41;;;;;;;5.28;1.58;;;12.80;99.90;;;;;;4987415;28;20498;-67
2021/05/15 09:49:09;;;;;;;4.82;1.33;;;12.50;99.90;;;;;;4982368;28;20494;-67
2021/05/15 09:51:36;;;;;;;2.70;1.20;;;12.30;99.90;;;;;;4980058;28;20059;-67
2021/05/15 09:54:15;;;;;;;2.45;1.15;;;12.30;99.90;;;;;;4982976;28;20156;-68
2021/05/15 09:56:41;;;;;;;2.72;1.10;;;12.60;99.90;;;;;;4983227;28;20089;-67
2021/05/15 09:59:09;;;;;;;4.40;1.27;;;13.30;99.90;;;;;;4982101;28;20060;-67
2021/05/15 10:01:42;;;;;;;6.43;1.40;;;14.00;99.90;;;;;;4985857;28;20081;-67
2021/05/15 10:04:09;;;;;;;2.90;1.23;;;14.50;99.90;;;;;;4987082;28;20056;-67
2021/05/15 10:06:35;;;;;;;3.08;1.30;;;15.00;99.90;;;;;;4983597;28;20077;-67
2021/05/15 10:09:02;;;;;;;2.05;1.10;;;15.40;99.90;;;;;;4985861;28;20107;-67
2021/05/15 10:11:30;;;;;;;2.35;1.00;;;15.90;99.90;;;;;;4988189;28;20121;-67
2021/05/15 10:13:57;;;;;;;3.35;1.23;;;16.50;99.90;;;;;;4985408;28;20050;-67
2021/05/15 10:16:23;;;;;;;3.42;0.90;;;17.40;99.90;;;;;;4984651;28;20078;-67
2021/05/15 10:18:50;;;;;;;3.92;1.08;;;17.70;99.90;;;;;;4985420;28;20079;-67
2021/05/15 10:21:16;;;;;;;2.10;0.80;;;17.50;99.90;;;;;;4984951;28;20081;-67
2021/05/15 10:23:44;;;;;;;2.60;1.20;;;16.60;99.90;;;;;;4986867;28;20049;-66
2021/05/15 10:26:18;;;;;;;1.70;1.15;;;16.20;99.90;;;;;;4983130;28;20053;-67
2021/05/15 10:28:56;;;;;;;1.60;0.82;;;15.60;99.90;;;;;;4983243;28;20128;-66
2021/05/15 10:31:23;;;;;;;2.08;0.90;;;15.50;99.90;;;;;;4984899;28;20077;-67
2021/05/15 10:34:00;;;;;;;1.13;0.70;;;15.30;99.90;;;;;;4984909;28;20068;-66
2021/05/15 10:36:26;;;;;;;;;;;15.40;99.90;;;;;;4991824;28;20049;-66
2021/05/15 10:38:54;;;;;;;1.80;0.80;;;16.10;99.90;;;;;;4985959;28;19925;-67
2021/05/15 10:41:24;;;;;;;0.93;0.70;;;17.30;99.90;;;;;;4984170;28;20058;-67
2021/05/15 10:43:52;;;;;;;1.23;0.70;;;17.30;99.90;;;;;;4985824;28;20045;-67
2021/05/15 10:46:25;;;;;;;2.00;0.80;;;17.70;99.90;;;;;;4982751;28;20454;-67
2021/05/15 10:49:19;;;;;;;1.40;0.90;;;18.50;99.90;;;;;;4979066;28;20060;-67
2021/05/15 10:51:47;;;;;;;1.33;0.80;;;18.30;99.90;;;;;;4980275;28;20110;-67
2021/05/15 10:54:16;;;;;;;1.63;0.90;;;19.00;99.90;;;;;;4975416;28;20053;-67
2021/05/15 10:56:43;;;;;;;2.58;0.90;;;18.70;99.90;;;;;;4975142;28;20767;-67
2021/05/15 10:59:12;;;;;;;2.75;1.25;;;18.20;99.90;;;;;;4983057;28;20082;-68
2021/05/15 11:01:50;;;;;;;1.77;0.70;;;18.40;99.90;;;;;;4984707;28;20910;-68
2021/05/15 11:04:22;;;;;;;1.42;0.70;;;18.50;99.90;;;;;;4988040;28;20561;-68
2021/05/15 11:07:00;;;;;;;2.88;1.10;;;17.90;99.90;;;;;;4986470;28;20049;-68
2021/05/15 11:09:27;;;;;;;1.33;0.70;;;17.50;99.90;;;;;;4988140;28;20096;-68
2021/05/15 11:12:03;;;;;;;3.35;1.00;;;17.40;99.90;;;;;;4988016;28;20050;-68
2021/05/15 11:14:31;;;;;;;1.73;0.73;;;17.40;99.90;;;;;;4985800;28;20049;-68
2021/05/15 11:17:16;;;;;;;1.95;0.73;;;17.10;99.90;;;;;;4983700;28;20108;-68
2021/05/15 11:19:57;;;;;;;1.77;1.00;;;17.00;99.90;;;;;;4986636;28;21242;-66
2021/05/15 11:22:36;;;;;;;3.50;0.70;;;16.70;99.90;;;;;;4987888;28;20092;-65
2021/05/15 11:25:27;;;;;;;0.73;0.60;;;16.60;99.90;;;;;;4985584;28;20128;-66
2021/05/15 11:27:55;;;;;;;1.73;0.70;;;16.60;99.90;;;;;;4980116;28;20055;-66
2021/05/15 11:30:24;;;;;;;1.58;0.70;;;16.30;99.90;;;;;;4985867;28;20059;-65
2021/05/15 11:32:58;;;;;;;7.90;0.90;;;15.80;99.90;;;;;;4988558;28;20045;-72
2021/05/15 11:35:25;;;;;;;0.82;0.40;;;15.60;99.90;;;;;;4992319;28;20089;-70
2021/05/15 11:38:08;;;;;;;0.68;0.40;;;14.40;99.90;;;;;;4998184;28;20061;-69
2021/05/15 11:40:36;;;;;;;1.88;0.38;;;13.60;99.90;;;;;;4997477;28;20053;-68
2021/05/15 11:43:06;;;;;;;1.02;0.38;;;12.30;99.90;;;;;;4993067;28;20060;-65
2021/05/15 11:45:35;;;;;;;1.85;0.40;;;11.50;99.90;;;;;;4983747;28;20119;-65
2021/05/15 11:48:10;;;;;;;0.55;0.30;;;11.30;99.90;;;;;;4981329;28;20050;-66
2021/05/15 11:50:37;;;;;;;5.38;0.43;;;11.70;99.90;;;;;;4990995;28;20084;-66
2021/05/15 11:53:04;;;;;;;1.45;0.43;;;12.30;99.90;;;;;;4986853;28;20088;-67
2021/05/15 11:55:33;;;;;;;0.68;0.40;;;12.80;99.90;;;;;;4993128;28;20529;-67
2021/05/15 11:58:01;;;;;;;0.93;0.32;;;13.40;99.90;;;;;;4988892;28;20490;-66
2021/05/15 12:00:29;;;;;;;2.78;0.40;;;14.20;99.90;;;;;;4997412;28;20723;-69
2021/05/15 12:02:56;;;;;;;0.98;0.43;;;14.70;99.90;;;;;;4994778;28;20537;-69
2021/05/15 12:05:23;;;;;;;0.35;0.20;;;15.10;99.90;;;;;;4993687;28;20560;-69
2021/05/15 12:07:51;;;;;;;1.40;0.40;;;15.00;99.90;;;;;;4993615;28;20085;-67
2021/05/15 12:10:19;;;;;;;0.40;0.40;;;15.20;99.90;;;;;;4995454;28;20065;-66
2021/05/15 12:12:56;;;;;;;0.77;0.50;;;15.50;99.90;;;;;;5001689;28;20446;-67
2021/05/15 12:15:24;;;;;;;0.90;0.50;;;15.80;99.90;;;;;;4997682;28;20137;-69
2021/05/15 12:17:53;;;;;;;0.20;0.20;;;16.70;99.90;;;;;;4998376;28;20103;-67
2021/05/15 12:20:29;;;;;;;0.50;0.28;;;17.50;99.90;;;;;;4997132;28;20143;-67
2021/05/15 12:23:10;;;;;;;0.40;0.30;;;18.00;99.90;;;;;;4994774;28;20350;-69
2021/05/15 12:25:39;;;;;;;0.60;0.50;;;18.50;99.90;;;;;;4996937;28;20053;-70
2021/05/15 12:28:23;;;;;;;0.52;0.32;;;19.00;99.90;;;;;;4989790;28;20058;-71
2021/05/15 12:30:50;;;;;;;1.05;0.40;;;19.40;99.90;;;;;;4992722;28;20057;-70
2021/05/15 12:33:19;;;;;;;0.95;0.20;;;19.80;99.90;;;;;;4993061;28;20073;-68
2021/05/15 12:36:00;;;;;;;0.85;0.32;;;19.60;99.90;;;;;;4994404;28;20132;-68
2021/05/15 12:38:27;;;;;;;1.35;0.30;;;19.60;99.90;;;;;;4995023;28;20149;-68
2021/05/15 12:41:04;;;;;;;3.05;0.38;;;19.30;99.90;;;;;;4991972;28;20050;-68
2021/05/15 12:43:31;;;;;;;1.52;0.38;;;20.00;99.90;;;;;;4994393;28;20049;-68
2021/05/15 12:46:06;;;;;;;1.05;0.60;;;19.60;99.90;;;;;;4992805;28;20053;-68
2021/05/15 12:48:39;;;;;;;2.63;0.40;;;19.50;99.90;;;;;;4992870;28;20138;-68
2021/05/15 12:51:09;;;;;;;0.60;0.30;;;19.60;99.90;;;;;;4991052;28;20250;-68
2021/05/15 12:53:35;;;;;;;1.08;0.55;;;19.30;99.90;;;;;;4985561;28;20092;-68
2021/05/15 12:56:02;;;;;;;2.00;0.50;;;19.10;99.90;;;;;;4988011;28;20295;-68
2021/05/15 12:58:29;;;;;;;0.30;0.30;;;19.10;99.90;;;;;;4992343;28;20053;-68
2021/05/15 13:00:58;;;;;;;2.45;0.45;;;18.90;99.90;;;;;;4994512;28;20053;-67
2021/05/15 13:03:25;;;;;;;0.75;0.30;;;18.80;99.90;;;;;;4986783;28;20201;-70
2021/05/15 13:05:52;;;;;;;0.32;0.30;;;18.80;99.90;;;;;;4993313;28;20065;-67